Terminal Aerodrome Forecast
Issued by NWS Mt. Holly, NJ

Home | Current Version | Previous Version | Text Only | Print | Product List | Glossary On
Versions: 1 2 3 4 5 6 7 8 9 10 11 12 13 14 15 16 17 18
000
FTUS41 KPHI 221124
TAFILG
TAF
KILG 221124Z 2212/2312 13004KT P6SM VCSH OVC060
     FM221800 17007KT P6SM VCTS BKN045CB
      TEMPO 2220/2221 5SM -SHRA BKN025
     FM222100 18005KT 6SM -SHRA OVC035 PROB30 2221/2301 5SM TS
      OVC025CB
     FM230200 21004KT P6SM OVC035 PROB30 2302/2303 5SM -SHRA OVC025
     FM230300 22004KT P6SM BKN030
     FM230600 24005KT P6SM BKN035=

USA.gov is the U.S. government's official web portal to all federal, state and local government web resources and services.